Villas del Faro, Puerto Rico
Current Conditions -  °F | °C
As of 12:53 AM on Sunday 23 Nov 2014 (Local Time) from TJNR Reporting Station
Clear Clear  
Wind Chill: 81°   Ceiling: Unl
Heat Index: 85°   Visibility: 10mi
Dew Point: 72°   Wind: 13mph
Humidity: 74%   Direction: 90°E
Pressure: 30.04"   Gusts: NA
Location:  18.0098°N, 65.8982°W
Report Text: TJNR 230453Z AUTO 09011KT 10SM CLR 27/22 A3004 RMK AO2 SLP171 T02720222 $
Loading
Personal Weather Stations






























Interactive Weather Map New forecast layout! Learn more

10-Day Weather Forecast

Advertisements
Track Severe Weather on mobile